Time;durP1;ratioP1;P1;durP2;ratioP2;P2;SDS_P1;SDS_P2;PMS_P1;PMS_P2;Temp;Humidity;BMP_temperature;BMP_pressure;BME280_temperature;BME280_humidity;BME280_pressure;Samples;Min_cycle;Max_cycle;Signal;HPM_P1;HPM_P2
2022/02/16 00:00:35;;;;;;;;;;;4.40;99.90;;;;;;4178106;28;19986;-54
2022/02/16 00:02:38;;;;;;;;;;;4.40;99.90;;;;;;4171364;28;20279;-54
2022/02/16 00:04:40;;;;;;;;;;;4.40;99.90;;;;;;4170563;28;20011;-55
2022/02/16 00:06:42;;;;;;;;;;;4.40;99.90;;;;;;4165772;28;20388;-54
2022/02/16 00:08:44;;;;;;;;;;;4.40;99.90;;;;;;4167608;28;20326;-55
2022/02/16 00:10:46;;;;;;;;;;;4.40;99.90;;;;;;4164655;28;19931;-55
2022/02/16 00:12:48;;;;;;;;;;;4.40;99.90;;;;;;4176479;28;19933;-53
2022/02/16 00:14:50;;;;;;;;;;;4.40;99.90;;;;;;4174447;28;19925;-54
2022/02/16 00:16:51;;;;;;;;;;;4.30;99.90;;;;;;4175438;28;20016;-54
2022/02/16 00:18:53;;;;;;;;;;;4.30;99.90;;;;;;4176481;28;20011;-54
2022/02/16 00:20:55;;;;;;;;;;;4.30;99.90;;;;;;4174734;28;19968;-55
2022/02/16 00:22:57;;;;;;;;;;;4.30;99.90;;;;;;4175748;28;20579;-54
2022/02/16 00:24:59;;;;;;;;;;;4.30;99.90;;;;;;4177248;28;19964;-54
2022/02/16 00:27:01;;;;;;;;;;;4.30;99.90;;;;;;4173662;28;20027;-53
2022/02/16 00:29:03;;;;;;;;;;;4.40;99.90;;;;;;4164013;28;19925;-54
2022/02/16 00:31:05;;;;;;;;;;;4.40;99.90;;;;;;4166640;28;19936;-54
2022/02/16 00:33:07;;;;;;;;;;;4.40;99.90;;;;;;4170196;28;20367;-54
2022/02/16 00:35:09;;;;;;;;;;;4.40;99.90;;;;;;4176214;28;20385;-55
2022/02/16 00:37:11;;;;;;;;;;;4.30;99.90;;;;;;4175119;28;19925;-54
2022/02/16 00:39:13;;;;;;;;;;;4.30;99.90;;;;;;4174257;28;20023;-54
2022/02/16 00:41:15;;;;;;;;;;;4.30;99.90;;;;;;4170263;28;20020;-54
2022/02/16 00:43:17;;;;;;;;;;;4.30;99.90;;;;;;4175469;28;19932;-55
2022/02/16 00:45:19;;;;;;;;;;;4.30;99.90;;;;;;4169579;28;19983;-54
2022/02/16 00:47:20;;;;;;;;;;;4.30;99.90;;;;;;4176601;28;19929;-55
2022/02/16 00:49:22;;;;;;;;;;;4.30;99.90;;;;;;4170295;28;19951;-54
2022/02/16 00:51:24;;;;;;;;;;;4.30;99.90;;;;;;4167578;28;20023;-54
2022/02/16 00:53:27;;;;;;;;;;;4.40;99.90;;;;;;4164887;28;20030;-53
2022/02/16 00:55:28;;;;;;;;;;;4.40;99.90;;;;;;4172427;28;20061;-54
2022/02/16 00:57:35;;;;;;;;;;;4.40;99.90;;;;;;4168750;28;19971;-54
2022/02/16 00:59:37;;;;;;;;;;;4.30;99.90;;;;;;4165482;28;20020;-55
2022/02/16 01:01:39;;;;;;;;;;;4.40;99.90;;;;;;4172925;28;20048;-54
2022/02/16 01:03:41;;;;;;;;;;;4.30;99.90;;;;;;4167326;28;19924;-54
2022/02/16 01:05:45;;;;;;;;;;;4.30;99.90;;;;;;4170546;28;19956;-55
2022/02/16 01:07:47;;;;;;;;;;;4.30;99.90;;;;;;4172047;28;19932;-54
2022/02/16 01:09:49;;;;;;;;;;;4.40;99.90;;;;;;4165935;28;19975;-54
2022/02/16 01:11:50;;;;;;;;;;;4.40;99.90;;;;;;4168367;28;19971;-54
2022/02/16 01:13:52;;;;;;;;;;;4.40;99.90;;;;;;4165376;28;20032;-55
2022/02/16 01:15:55;;;;;;;;;;;4.40;99.90;;;;;;4164663;28;19980;-54
2022/02/16 01:17:56;;;;;;;;;;;4.40;99.90;;;;;;4174192;28;20028;-54
2022/02/16 01:19:59;;;;;;;;;;;4.40;99.90;;;;;;4166456;28;19925;-54
2022/02/16 01:22:02;;;;;;;;;;;4.30;99.90;;;;;;4165111;28;19924;-54
2022/02/16 01:24:04;;;;;;;;;;;4.40;99.90;;;;;;4176779;28;20020;-54
2022/02/16 01:26:06;;;;;;;;;;;4.40;99.90;;;;;;4168375;28;19931;-54
2022/02/16 01:28:08;;;;;;;;;;;4.40;99.90;;;;;;4164739;28;19935;-53
2022/02/16 01:30:10;;;;;;;;;;;4.40;99.90;;;;;;4175958;28;19929;-54
2022/02/16 01:32:12;;;;;;;;;;;4.30;99.90;;;;;;4171578;28;20024;-54
2022/02/16 01:34:16;;;;;;;;;;;4.40;99.90;;;;;;4173657;28;20427;-53
2022/02/16 01:36:18;;;;;;;;;;;4.40;99.90;;;;;;4173775;28;19976;-54
2022/02/16 01:38:20;;;;;;;;;;;4.40;99.90;;;;;;4172633;28;20019;-54
2022/02/16 01:40:22;;;;;;;;;;;4.40;99.90;;;;;;4161866;28;20023;-53
2022/02/16 01:42:24;;;;;;;;;;;4.40;99.90;;;;;;4175292;28;20377;-54
2022/02/16 01:44:26;;;;;;;;;;;4.40;99.90;;;;;;4174187;28;19968;-54
2022/02/16 01:46:28;;;;;;;;;;;4.50;99.90;;;;;;4172756;28;19929;-55
2022/02/16 01:48:30;;;;;;;;;;;4.40;99.90;;;;;;4175192;28;19971;-54
2022/02/16 01:50:32;;;;;;;;;;;4.40;99.90;;;;;;4171059;28;19929;-54
2022/02/16 01:52:34;;;;;;;;;;;4.40;99.90;;;;;;4175458;28;19967;-54
2022/02/16 01:54:36;;;;;;;;;;;4.40;99.90;;;;;;4176196;28;20012;-54
2022/02/16 01:56:42;;;;;;;;;;;4.40;99.90;;;;;;4174600;28;19929;-55
2022/02/16 01:58:45;;;;;;;;;;;4.40;99.90;;;;;;4172966;28;19935;-55
2022/02/16 02:00:47;;;;;;;;;;;4.40;99.90;;;;;;4175934;28;19967;-54
2022/02/16 02:02:49;;;;;;;;;;;4.30;99.90;;;;;;4177938;28;20416;-55
2022/02/16 02:04:51;;;;;;;;;;;4.30;99.90;;;;;;4176573;28;20341;-54
2022/02/16 02:06:53;;;;;;;;;;;4.30;99.90;;;;;;4176776;28;19925;-54
2022/02/16 02:08:55;;;;;;;;;;;4.30;99.90;;;;;;4176647;28;20046;-55
2022/02/16 02:10:57;;;;;;;;;;;4.40;99.90;;;;;;4179629;28;19924;-54
2022/02/16 02:12:59;;;;;;;;;;;4.30;99.90;;;;;;4177928;28;19931;-54
2022/02/16 02:15:01;;;;;;;;;;;4.30;99.90;;;;;;4175816;28;19932;-55
2022/02/16 02:17:03;;;;;;;;;;;4.30;99.90;;;;;;4179460;28;20015;-55
2022/02/16 02:19:08;;;;;;;;;;;4.30;99.90;;;;;;4171237;28;19933;-55
2022/02/16 02:21:11;;;;;;;;;;;4.20;99.90;;;;;;4168822;28;19928;-55
2022/02/16 02:23:14;;;;;;;;;;;4.20;99.90;;;;;;4179139;28;19955;-53
2022/02/16 02:25:16;;;;;;;;;;;4.30;99.90;;;;;;4176024;28;19956;-55
2022/02/16 02:27:18;;;;;;;;;;;4.20;99.90;;;;;;4177601;28;19928;-54
2022/02/16 02:29:20;;;;;;;;;;;4.30;99.90;;;;;;4175902;28;20383;-54
2022/02/16 02:31:29;;;;;;;;;;;4.30;99.90;;;;;;4171912;28;20036;-54
2022/02/16 02:33:30;;;;;;;;;;;4.20;99.90;;;;;;4169064;28;19960;-53
2022/02/16 02:35:32;;;;;;;;;;;4.30;99.90;;;;;;4175897;28;20467;-54
2022/02/16 02:37:35;;;;;;;;;;;4.30;99.90;;;;;;4171420;28;20383;-54
2022/02/16 02:39:37;;;;;;;;;;;4.30;99.90;;;;;;4168434;28;19940;-55
2022/02/16 02:41:39;;;;;;;;;;;4.20;99.90;;;;;;4167635;28;19971;-54
2022/02/16 02:43:42;;;;;;;;;;;4.10;99.90;;;;;;4168357;28;19936;-54
2022/02/16 02:45:44;;;;;;;;;;;4.10;99.90;;;;;;4167328;28;19928;-54
2022/02/16 02:47:46;;;;;;;;;;;4.20;99.90;;;;;;4179325;28;19970;-55
2022/02/16 02:49:51;;;;;;;;;;;4.10;99.90;;;;;;4175265;28;20377;-54
2022/02/16 02:51:53;;;;;;;;;;;4.20;99.90;;;;;;4168488;28;19976;-55
2022/02/16 02:53:55;;;;;;;;;;;4.20;99.90;;;;;;4164887;28;19925;-55
2022/02/16 02:55:59;;;;;;;;;;;4.10;99.90;;;;;;4173859;28;19936;-55
2022/02/16 02:58:01;;;;;;;;;;;4.10;99.90;;;;;;4175723;28;19935;-54
2022/02/16 03:00:03;;;;;;;;;;;4.10;99.90;;;;;;4172238;28;19952;-55
2022/02/16 03:02:05;;;;;;;;;;;4.10;99.90;;;;;;4174304;28;20304;-55
2022/02/16 03:04:07;;;;;;;;;;;4.10;99.90;;;;;;4169635;28;20434;-56
2022/02/16 03:06:11;;;;;;;;;;;4.10;99.90;;;;;;4178256;28;20000;-56
2022/02/16 03:08:13;;;;;;;;;;;4.20;99.90;;;;;;4175978;28;19952;-55
2022/02/16 03:10:15;;;;;;;;;;;4.20;99.90;;;;;;4176924;28;19972;-55
2022/02/16 03:12:16;;;;;;;;;;;4.10;99.90;;;;;;4177890;28;19960;-55
2022/02/16 03:14:18;;;;;;;;;;;4.00;99.90;;;;;;4174974;28;19932;-54
2022/02/16 03:16:20;;;;;;;;;;;3.90;99.90;;;;;;4176561;28;20370;-53
2022/02/16 03:18:22;;;;;;;;;;;3.90;99.90;;;;;;4177665;28;20640;-54
2022/02/16 03:20:24;;;;;;;;;;;4.00;99.90;;;;;;4174288;28;19925;-54
2022/02/16 03:22:28;;;;;;;;;;;3.90;99.90;;;;;;4176777;28;19971;-55
2022/02/16 03:24:30;;;;;;;;;;;3.90;99.90;;;;;;4178278;28;20428;-55
2022/02/16 03:26:32;;;;;;;;;;;4.00;99.90;;;;;;4173040;28;19960;-54
2022/02/16 03:28:33;;;;;;;;;;;3.90;99.90;;;;;;4176466;28;20027;-55
2022/02/16 03:30:35;;;;;;;;;;;3.90;99.90;;;;;;4162966;28;19947;-55
2022/02/16 03:33:00;;;;;;;;;;;3.90;99.90;;;;;;4174022;28;20424;-55
2022/02/16 03:35:02;;;;;;;;;;;3.90;99.90;;;;;;4175681;28;19924;-55
2022/02/16 03:37:04;;;;;;;;;;;3.90;99.90;;;;;;4178268;28;20344;-55
2022/02/16 03:39:07;;;;;;;;;;;3.90;99.90;;;;;;4172858;28;20393;-55
2022/02/16 03:41:09;;;;;;;;;;;3.90;99.90;;;;;;4176157;28;20015;-54
2022/02/16 03:43:11;;;;;;;;;;;3.90;99.90;;;;;;4175356;28;19977;-54
2022/02/16 03:45:13;;;;;;;;;;;3.90;99.90;;;;;;4167693;28;19971;-54
2022/02/16 03:47:15;;;;;;;;;;;3.90;99.90;;;;;;4166810;28;19932;-55
2022/02/16 03:49:18;;;;;;;;;;;4.00;99.90;;;;;;4163962;28;19952;-55
2022/02/16 03:51:20;;;;;;;;;;;3.90;99.90;;;;;;4170629;28;19933;-55
2022/02/16 03:53:22;;;;;;;;;;;3.90;99.90;;;;;;4166025;28;19929;-55
2022/02/16 03:55:23;;;;;;;;;;;3.90;99.90;;;;;;4166234;28;20008;-55
2022/02/16 03:57:25;;;;;;;;;;;3.90;99.90;;;;;;4169056;28;19975;-55
2022/02/16 03:59:27;;;;;;;;;;;3.90;99.90;;;;;;4176184;28;19928;-55
2022/02/16 04:01:29;;;;;;;;;;;3.90;99.90;;;;;;4175918;28;19935;-54
2022/02/16 04:03:32;;;;;;;;;;;4.00;99.90;;;;;;4175905;28;20015;-55
2022/02/16 04:05:34;;;;;;;;;;;3.90;99.90;;;;;;4164796;28;19936;-54
2022/02/16 04:07:36;;;;;;;;;;;3.90;99.90;;;;;;4170109;28;20400;-54
2022/02/16 04:09:38;;;;;;;;;;;3.90;99.90;;;;;;4172115;28;20774;-54
2022/02/16 04:11:40;;;;;;;;;;;3.90;99.90;;;;;;4173515;28;20024;-56
2022/02/16 04:13:42;;;;;;;;;;;3.90;99.90;;;;;;4177305;28;20388;-55
2022/02/16 04:15:44;;;;;;;;;;;3.90;99.90;;;;;;4175663;28;19925;-55
2022/02/16 04:17:46;;;;;;;;;;;3.90;99.90;;;;;;4166149;28;20024;-55
2022/02/16 04:19:48;;;;;;;;;;;3.90;99.90;;;;;;4174652;28;19925;-55
2022/02/16 04:21:50;;;;;;;;;;;3.80;99.90;;;;;;4173049;28;20024;-55
2022/02/16 04:23:52;;;;;;;;;;;3.90;99.90;;;;;;4168168;28;19929;-54
2022/02/16 04:25:54;;;;;;;;;;;3.90;99.90;;;;;;4176177;28;19954;-54
2022/02/16 04:27:57;;;;;;;;;;;3.80;99.90;;;;;;4174315;28;20413;-55
2022/02/16 04:29:59;;;;;;;;;;;3.80;99.90;;;;;;4171102;28;20664;-55
2022/02/16 04:32:02;;;;;;;;;;;3.80;99.90;;;;;;4175898;28;20770;-54
2022/02/16 04:34:04;;;;;;;;;;;3.80;99.90;;;;;;4169360;28;19932;-55
2022/02/16 04:36:06;;;;;;;;;;;3.80;99.90;;;;;;4172540;28;19987;-54
2022/02/16 04:38:08;;;;;;;;;;;3.90;99.90;;;;;;4165998;28;19935;-56
2022/02/16 04:40:10;;;;;;;;;;;3.90;99.90;;;;;;4167668;28;19932;-55
2022/02/16 04:42:12;;;;;;;;;;;4.00;99.90;;;;;;4173409;28;19935;-54
2022/02/16 04:44:14;;;;;;;;;;;4.00;99.90;;;;;;4173974;28;20011;-54
2022/02/16 04:46:16;;;;;;;;;;;3.90;99.90;;;;;;4171760;28;19924;-55
2022/02/16 04:48:21;;;;;;;;;;;4.00;99.90;;;;;;4176958;28;20019;-55
2022/02/16 04:50:22;;;;;;;;;;;4.00;99.90;;;;;;4173857;28;20277;-54
2022/02/16 04:52:34;;;;;;;;;;;4.00;99.90;;;;;;4174660;28;20300;-55
2022/02/16 04:54:36;;;;;;;;;;;4.00;99.90;;;;;;4177230;28;19925;-55
2022/02/16 04:56:38;;;;;;;;;;;3.90;99.90;;;;;;4165085;28;19932;-55
2022/02/16 04:58:40;;;;;;;;;;;3.90;99.90;;;;;;4165928;28;19964;-55
2022/02/16 05:00:42;;;;;;;;;;;4.00;99.90;;;;;;4176761;28;19960;-54
2022/02/16 05:02:44;;;;;;;;;;;3.90;99.90;;;;;;4165606;28;20320;-56
2022/02/16 05:04:46;;;;;;;;;;;3.90;99.90;;;;;;4165079;28;19931;-55
2022/02/16 05:06:48;;;;;;;;;;;3.90;99.90;;;;;;4176926;28;19929;-55
2022/02/16 05:08:50;;;;;;;;;;;3.90;99.90;;;;;;4174327;28;19972;-54
2022/02/16 05:10:52;;;;;;;;;;;3.90;99.90;;;;;;4168600;28;21326;-55
2022/02/16 05:12:54;;;;;;;;;;;3.80;99.90;;;;;;4177004;28;20031;-56
2022/02/16 05:14:55;;;;;;;;;;;3.90;99.90;;;;;;4174878;28;19939;-55
2022/02/16 05:16:57;;;;;;;;;;;3.80;99.90;;;;;;4173834;28;19929;-55
2022/02/16 05:18:59;;;;;;;;;;;3.80;99.90;;;;;;4174388;28;19956;-55
2022/02/16 05:21:01;;;;;;;;;;;3.80;99.90;;;;;;4169394;28;20029;-55
2022/02/16 05:23:03;;;;;;;;;;;3.80;99.90;;;;;;4163588;28;20007;-54
2022/02/16 05:25:06;;;;;;;;;;;3.80;99.90;;;;;;4176674;28;20044;-54
2022/02/16 05:27:08;;;;;;;;;;;3.80;99.90;;;;;;4173924;28;20401;-55
2022/02/16 05:29:09;;;;;;;;;;;3.80;99.90;;;;;;4173939;28;19963;-55
2022/02/16 05:31:12;;;;;;;;;;;3.80;99.90;;;;;;4172380;28;19929;-55
2022/02/16 05:33:13;;;;;;;;;;;3.90;99.90;;;;;;4171646;28;20393;-56
2022/02/16 05:35:15;;;;;;;;;;;3.90;99.90;;;;;;4162556;28;19931;-55
2022/02/16 05:37:20;;;;;;;;;;;3.90;99.90;;;;;;4168223;28;20029;-55
2022/02/16 05:39:22;;;;;;;;;;;3.90;99.90;;;;;;4168751;28;20020;-55
2022/02/16 05:41:25;;;;;;;;;;;3.80;99.90;;;;;;4166558;28;19929;-55
2022/02/16 05:43:28;;;;;;;;;;;3.80;99.90;;;;;;4170901;28;20007;-54
2022/02/16 05:45:31;;;;;;;;;;;3.80;99.90;;;;;;4170835;28;20020;-55
2022/02/16 05:47:33;;;;;;;;;;;3.80;99.90;;;;;;4164385;28;19983;-55
2022/02/16 05:49:34;;;;;;;;;;;3.70;99.90;;;;;;4178312;28;19960;-54
2022/02/16 05:51:36;;;;;;;;;;;3.70;99.90;;;;;;4175557;28;19935;-55
2022/02/16 05:53:38;;;;;;;;;;;3.70;99.90;;;;;;4169497;28;20031;-56
2022/02/16 05:55:44;;;;;;;;;;;3.80;99.90;;;;;;4177880;28;19994;-55
2022/02/16 05:57:46;;;;;;;;;;;3.70;99.90;;;;;;4177589;28;19924;-55
2022/02/16 05:59:48;;;;;;;;;;;3.80;99.90;;;;;;4179815;28;19931;-54
2022/02/16 06:01:50;;;;;;;;;;;3.80;99.90;;;;;;4177106;28;19960;-55
2022/02/16 06:03:52;;;;;;;;;;;3.70;99.90;;;;;;4175571;28;20015;-54
2022/02/16 06:05:54;;;;;;;;;;;3.80;99.90;;;;;;4171528;28;19929;-54
2022/02/16 06:07:56;;;;;;;;;;;3.80;99.90;;;;;;4175854;28;19928;-55
2022/02/16 06:09:58;;;;;;;;;;;3.80;99.90;;;;;;4176726;28;20023;-55
2022/02/16 06:12:00;;;;;;;;;;;3.80;99.90;;;;;;4179282;28;19929;-54
2022/02/16 06:14:02;;;;;;;;;;;3.80;99.90;;;;;;4175809;28;20287;-53
2022/02/16 06:16:05;;;;;;;;;;;3.90;99.90;;;;;;4168862;28;20058;-54
2022/02/16 06:18:07;;;;;;;;;;;3.90;99.90;;;;;;4172751;28;20716;-55
2022/02/16 06:20:09;;;;;;;;;;;3.90;99.90;;;;;;4169476;28;20012;-55
2022/02/16 06:22:11;;;;;;;;;;;3.90;99.90;;;;;;4166991;28;19929;-55
2022/02/16 06:24:12;;;;;;;;;;;3.90;99.90;;;;;;4167556;28;19964;-49
2022/02/16 06:26:14;;;;;;;;;;;3.80;99.90;;;;;;4169182;28;19929;-51
2022/02/16 06:28:16;;;;;;;;;;;3.90;99.90;;;;;;4177951;28;20016;-49
2022/02/16 06:30:22;;;;;;;;;;;3.90;99.90;;;;;;4167834;28;20017;-52
2022/02/16 06:32:24;;;;;;;;;;;3.80;99.90;;;;;;4168217;28;20019;-50
2022/02/16 06:34:26;;;;;;;;;;;3.90;99.90;;;;;;4164462;28;19970;-52
2022/02/16 06:36:28;;;;;;;;;;;3.90;99.90;;;;;;4166810;28;19973;-51
2022/02/16 06:38:30;;;;;;;;;;;3.90;99.90;;;;;;4169946;28;19952;-48
2022/02/16 06:40:35;;;;;;;;;;;3.90;99.90;;;;;;4173770;28;20016;-51
2022/02/16 06:42:37;;;;;;;;;;;3.90;99.90;;;;;;4174678;28;20416;-51
2022/02/16 06:44:39;;;;;;;;;;;3.90;99.90;;;;;;4175369;28;20035;-50
2022/02/16 06:46:41;;;;;;;;;;;3.90;99.90;;;;;;4169851;28;19936;-49
2022/02/16 06:48:48;;;;;;;;;;;3.90;99.90;;;;;;4171156;28;19925;-51
2022/02/16 06:50:50;;;;;;;;;;;3.90;99.90;;;;;;4170369;28;19929;-50
2022/02/16 06:52:52;;;;;;;;;;;3.90;99.90;;;;;;4165234;28;19925;-50
2022/02/16 06:54:54;;;;;;;;;;;3.90;99.90;;;;;;4171080;28;19951;-51
2022/02/16 06:56:56;;;;;;;;;;;3.90;99.90;;;;;;4176583;28;19925;-52
2022/02/16 06:58:58;;;;;;;;;;;3.90;99.90;;;;;;4173274;28;19925;-51
2022/02/16 07:00:59;;;;;;;;;;;4.00;99.90;;;;;;4171795;28;19951;-50
2022/02/16 07:03:01;;;;;;;;;;;3.90;99.90;;;;;;4168448;28;19925;-51
2022/02/16 07:05:04;;;;;;;;;;;4.00;99.90;;;;;;4169213;28;19971;-49
2022/02/16 07:07:06;;;;;;;;;;;4.00;99.90;;;;;;4169922;28;19939;-51
2022/02/16 07:09:08;;;;;;;;;;;4.00;99.90;;;;;;4167762;28;20722;-51
2022/02/16 07:11:10;;;;;;;;;;;4.10;99.90;;;;;;4161116;28;20024;-51
2022/02/16 07:13:12;;;;;;;;;;;4.00;99.90;;;;;;4172681;28;20413;-50
2022/02/16 07:15:14;;;;;;;;;;;4.00;99.90;;;;;;4168221;28;19960;-52
2022/02/16 07:17:16;;;;;;;;;;;4.00;99.90;;;;;;4177550;28;20416;-51
2022/02/16 07:19:22;;;;;;;;;;;4.00;99.90;;;;;;4174002;28;19972;-49
2022/02/16 07:21:24;;;;;;;;;;;4.00;99.90;;;;;;4171165;28;19967;-51
2022/02/16 07:23:26;;;;;;;;;;;4.00;99.90;;;;;;4175703;28;19925;-51
2022/02/16 07:25:27;;;;;;;;;;;4.00;99.90;;;;;;4173763;28;20345;-51
2022/02/16 07:27:47;;;;;;;;;;;4.00;99.90;;;;;;4170530;28;19939;-50
2022/02/16 07:29:50;;;;;;;;;;;4.10;99.90;;;;;;4178275;28;19967;-48
2022/02/16 07:31:51;;;;;;;;;;;4.10;99.90;;;;;;4175659;28;20011;-50
2022/02/16 07:33:53;;;;;;;;;;;4.10;99.90;;;;;;4174320;28;19958;-52
2022/02/16 07:35:55;;;;;;;;;;;4.10;99.90;;;;;;4178312;28;19925;-50
2022/02/16 07:37:57;;;;;;;;;;;4.10;99.90;;;;;;4173597;28;19972;-52
2022/02/16 07:40:03;;;;;;;;;;;4.10;99.90;;;;;;4175373;28;19924;-50
2022/02/16 07:42:05;;;;;;;;;;;4.20;99.90;;;;;;4169056;28;19939;-52
2022/02/16 07:44:07;;;;;;;;;;;4.30;99.90;;;;;;4174190;28;19929;-52
2022/02/16 07:46:09;;;;;;;;;;;4.20;99.90;;;;;;4175964;28;19935;-51
2022/02/16 07:48:11;;;;;;;;;;;4.30;99.90;;;;;;4177158;28;19929;-50
2022/02/16 07:50:13;;;;;;;;;;;4.30;99.90;;;;;;4169681;28;20020;-51
2022/02/16 07:52:15;;;;;;;;;;;4.30;99.90;;;;;;4166481;28;20028;-52
2022/02/16 07:54:19;;;;;;;;;;;4.30;99.90;;;;;;4177117;28;20440;-52
2022/02/16 07:56:21;;;;;;;;;;;4.50;99.90;;;;;;4174767;28;20033;-50
2022/02/16 07:58:24;;;;;;;;;;;4.50;99.90;;;;;;4174794;28;19972;-52
2022/02/16 08:00:26;;;;;;;;;;;4.50;99.90;;;;;;4177371;28;20462;-50
2022/02/16 08:02:29;;;;;;;;;;;4.60;99.90;;;;;;4174149;28;19925;-50
2022/02/16 08:04:31;;;;;;;;;;;4.60;99.90;;;;;;4176257;28;19964;-51
2022/02/16 08:06:33;;;;;;;;;;;4.70;99.90;;;;;;4176870;28;19931;-50
2022/02/16 08:08:35;;;;;;;;;;;4.70;99.90;;;;;;4172719;28;19935;-51
2022/02/16 08:10:37;;;;;;;;;;;4.70;99.90;;;;;;4168330;28;19956;-52
2022/02/16 08:12:46;;;;;;;;;;;4.80;99.90;;;;;;4164254;28;19964;-51
2022/02/16 08:14:48;;;;;;;;;;;4.80;99.90;;;;;;4171957;28;19924;-52
2022/02/16 08:16:50;;;;;;;;;;;4.90;99.90;;;;;;4174775;28;19960;-52
2022/02/16 08:18:52;;;;;;;;;;;5.00;99.90;;;;;;4174541;28;20128;-50
2022/02/16 08:20:54;;;;;;;;;;;5.00;99.90;;;;;;4175649;28;20035;-52
2022/02/16 08:22:56;;;;;;;;;;;5.10;99.90;;;;;;4173682;28;19937;-51
2022/02/16 08:24:58;;;;;;;;;;;5.20;99.90;;;;;;4167273;28;20024;-51
2022/02/16 08:27:00;;;;;;;;;;;5.30;99.90;;;;;;4168900;28;19924;-50
2022/02/16 08:29:02;;;;;;;;;;;5.40;99.90;;;;;;4163549;28;20258;-52
2022/02/16 08:31:04;;;;;;;;;;;5.40;99.90;;;;;;4165102;28;20603;-52
2022/02/16 08:33:11;;;;;;;;;;;5.40;99.90;;;;;;4169631;28;19931;-52
2022/02/16 08:35:14;;;;;;;;;;;5.40;99.90;;;;;;4163366;28;20015;-51
2022/02/16 08:37:16;;;;;;;;;;;5.50;99.90;;;;;;4170827;28;20338;-51
2022/02/16 08:39:18;;;;;;;;;;;5.60;99.90;;;;;;4166888;28;20381;-51
2022/02/16 08:41:20;;;;;;;;;;;5.70;99.90;;;;;;4165816;28;19935;-50
2022/02/16 08:43:22;;;;;;;;;;;5.70;99.90;;;;;;4165921;28;19925;-51
2022/02/16 08:45:25;;;;;;;;;;;5.60;99.90;;;;;;4174091;28;19972;-50
2022/02/16 08:47:26;;;;;;;;;;;5.70;99.90;;;;;;4161117;28;19925;-51
2022/02/16 08:49:28;;;;;;;;;;;5.70;99.90;;;;;;4175860;28;20296;-50
2022/02/16 08:51:30;;;;;;;;;;;5.80;99.90;;;;;;4174095;28;20475;-51
2022/02/16 08:53:32;;;;;;;;;;;5.80;99.90;;;;;;4175185;28;19925;-51
2022/02/16 08:55:34;;;;;;;;;;;5.80;99.90;;;;;;4174423;28;20393;-52
2022/02/16 08:57:36;;;;;;;;;;;5.90;99.90;;;;;;4173946;28;20422;-50
2022/02/16 08:59:38;;;;;;;;;;;5.90;99.90;;;;;;4177623;28;20019;-52
2022/02/16 09:01:40;;;;;;;;;;;6.00;99.90;;;;;;4166251;28;20301;-52
2022/02/16 09:03:42;;;;;;;;;;;6.00;99.90;;;;;;4165564;28;20388;-50
2022/02/16 09:05:44;;;;;;;;;;;6.10;99.90;;;;;;4177516;28;20340;-51
2022/02/16 09:07:46;;;;;;;;;;;6.30;99.90;;;;;;4173975;28;20393;-50
2022/02/16 09:09:48;;;;;;;;;;;6.40;99.90;;;;;;4176388;28;19928;-50
2022/02/16 09:11:49;;;;;;;;;;;6.50;99.90;;;;;;4175390;28;20695;-51
2022/02/16 09:13:52;;;;;;;;;;;6.40;99.90;;;;;;4178401;28;19929;-51
2022/02/16 09:15:55;;;;;;;;;;;6.50;99.90;;;;;;4178518;28;20419;-52
2022/02/16 09:17:57;;;;;;;;;;;6.50;99.90;;;;;;4176894;28;19924;-51
2022/02/16 09:19:59;;;;;;;;;;;6.50;99.90;;;;;;4170451;28;20449;-51
2022/02/16 09:22:02;;;;;;;;;;;6.50;99.90;;;;;;4175288;28;20293;-49
2022/02/16 09:24:04;;;;;;;;;;;6.50;99.90;;;;;;4167407;28;20385;-51
2022/02/16 09:26:06;;;;;;;;;;;6.60;99.90;;;;;;4176451;28;19935;-51
2022/02/16 09:28:08;;;;;;;;;;;6.60;99.90;;;;;;4177388;28;19925;-51
2022/02/16 09:30:10;;;;;;;;;;;6.70;99.90;;;;;;4177509;28;19924;-51
2022/02/16 09:32:12;;;;;;;;;;;6.70;99.90;;;;;;4177891;28;19940;-51
2022/02/16 09:34:14;;;;;;;;;;;6.70;99.90;;;;;;4178302;28;19968;-51
2022/02/16 09:36:16;;;;;;;;;;;6.50;99.90;;;;;;4171517;28;20434;-51
2022/02/16 09:38:18;;;;;;;;;;;6.50;99.90;;;;;;4172960;28;20019;-52
2022/02/16 09:40:20;;;;;;;;;;;6.50;99.90;;;;;;4170016;28;20339;-51
2022/02/16 09:42:22;;;;;;;;;;;6.60;99.90;;;;;;4172858;28;20011;-49
2022/02/16 09:44:29;;;;;;;;;;;6.50;99.90;;;;;;4172066;28;19924;-52
2022/02/16 09:46:34;;;;;;;;;;;6.60;99.90;;;;;;4167568;28;19967;-51
2022/02/16 09:48:36;;;;;;;;;;;6.60;99.90;;;;;;4166953;28;19936;-50
2022/02/16 09:50:38;;;;;;;;;;;6.80;99.90;;;;;;4168292;28;19968;-51
2022/02/16 09:52:40;;;;;;;;;;;7.00;99.90;;;;;;4164433;28;19932;-49
2022/02/16 09:54:42;;;;;;;;;;;7.10;99.90;;;;;;4176480;28;20032;-50
2022/02/16 09:56:44;;;;;;;;;;;7.40;99.90;;;;;;4169442;28;19972;-51
2022/02/16 09:58:46;;;;;;;;;;;7.40;99.90;;;;;;4178196;28;20471;-50
2022/02/16 10:01:06;;;;;;;;;;;7.50;99.90;;;;;;4179015;28;19935;-51
2022/02/16 10:03:09;;;;;;;;;;;7.70;99.90;;;;;;4174029;28;20297;-52
2022/02/16 10:05:12;;;;;;;;;;;7.60;99.90;;;;;;4177775;28;20392;-51
2022/02/16 10:07:36;;;;;;;;;;;7.70;99.90;;;;;;4170516;28;19924;-52
2022/02/16 10:09:38;;;;;;;;;;;7.60;99.90;;;;;;4177800;28;19978;-52
2022/02/16 10:11:51;;;;;;;;;;;7.60;99.90;;;;;;4177684;28;19925;-51
2022/02/16 10:13:54;;;;;;;;;;;7.70;99.90;;;;;;4176523;28;20316;-50
2022/02/16 10:15:56;;;;;;;;;;;8.00;99.90;;;;;;4170752;28;19929;-49
2022/02/16 10:18:07;;;;;;;;;;;8.10;99.90;;;;;;4167561;28;19924;-52
2022/02/16 10:20:10;;;;;;;;;;;8.40;99.90;;;;;;4177605;28;19948;-53
2022/02/16 10:22:12;;;;;;;;;;;8.60;99.90;;;;;;4168183;28;19960;-51
2022/02/16 10:24:21;;;;;;;;;;;8.70;99.90;;;;;;4169770;28;19929;-51
2022/02/16 10:26:43;;;;;;;;;;;8.70;99.90;;;;;;4175881;28;19925;-51
2022/02/16 10:28:46;;;;;;;;;;;8.50;99.90;;;;;;4178126;28;19972;-52
2022/02/16 10:31:01;;;;;;;;;;;8.40;99.90;;;;;;4177385;28;19975;-51
2022/02/16 10:33:17;;;;;;;;;;;8.50;99.90;;;;;;4177618;28;20067;-51
2022/02/16 10:35:31;;;;;;;;;;;8.70;99.90;;;;;;4178142;28;19925;-51
2022/02/16 10:37:34;;;;;;;;;;;8.90;99.90;;;;;;4176065;28;20019;-50
2022/02/16 10:39:36;;;;;;;;;;;9.00;99.90;;;;;;4176491;28;20015;-51
2022/02/16 10:41:40;;;;;;;;;;;8.80;99.90;;;;;;4177962;28;19952;-51
2022/02/16 10:43:42;;;;;;;;;;;8.90;99.90;;;;;;4174831;28;20393;-51
2022/02/16 10:45:47;;;;;;;;;;;8.90;99.90;;;;;;4176940;28;20456;-50
2022/02/16 10:47:51;;;;;;;;;;;9.10;99.90;;;;;;4177901;28;20377;-50
2022/02/16 10:49:55;;;;;;;;;;;9.10;99.90;;;;;;4169778;28;19976;-51
2022/02/16 10:52:06;;;;;;;;;;;9.40;99.90;;;;;;4164750;28;19994;-51
2022/02/16 10:54:17;;;;;;;;;;;9.80;99.90;;;;;;4178879;28;20382;-52
2022/02/16 10:56:18;;;;;;;;;;;9.60;99.90;;;;;;4176410;28;20015;-52
2022/02/16 10:58:25;;;;;;;;;;;9.50;99.90;;;;;;4174867;28;19933;-52
2022/02/16 11:00:30;;;;;;;;;;;9.60;99.90;;;;;;4162969;28;20040;-51
2022/02/16 11:02:33;;;;;;;;;;;9.90;99.90;;;;;;4173629;28;20630;-52
2022/02/16 11:04:35;;;;;;;;;;;10.40;99.90;;;;;;4175819;28;19925;-52
2022/02/16 11:06:42;;;;;;;;;;;10.70;99.90;;;;;;4179030;28;19964;-51
2022/02/16 11:08:44;;;;;;;;;;;10.50;99.90;;;;;;4175688;28;20487;-50
2022/02/16 11:10:57;;;;;;;;;;;10.60;99.90;;;;;;4171508;28;19928;-51
2022/02/16 11:12:59;;;;;;;;;;;10.30;99.90;;;;;;4162275;28;20023;-52
2022/02/16 11:15:02;;;;;;;;;;;9.90;99.90;;;;;;4168643;28;20400;-53
2022/02/16 11:17:09;;;;;;;;;;;10.00;99.90;;;;;;4167663;28;19963;-51
2022/02/16 11:19:27;;;;;;;;;;;9.80;99.90;;;;;;4177114;28;19929;-51
2022/02/16 11:21:29;;;;;;;;;;;9.90;99.90;;;;;;4168651;28;20020;-52
2022/02/16 11:23:37;;;;;;;;;;;10.00;99.90;;;;;;4169393;28;19979;-52
2022/02/16 11:25:40;;;;;;;;;;;10.20;99.90;;;;;;4176779;28;20019;-52
2022/02/16 11:27:48;;;;;;;;;;;10.60;99.90;;;;;;4174997;28;20294;-52
2022/02/16 11:29:50;;;;;;;;;;;11.40;99.90;;;;;;4175228;28;19925;-52
2022/02/16 11:31:53;;;;;;;;;;;11.50;99.90;;;;;;4167598;28;19932;-51
2022/02/16 11:34:13;;;;;;;;;;;11.40;99.90;;;;;;4170905;28;19929;-49
2022/02/16 11:36:15;;;;;;;;;;;11.40;99.90;;;;;;4167810;28;19979;-53
2022/02/16 11:38:19;;;;;;;;;;;11.10;99.90;;;;;;4165447;28;20019;-52
2022/02/16 11:40:33;;;;;;;;;;;10.80;99.90;;;;;;4177005;28;19935;-52
2022/02/16 11:42:40;;;;;;;;;;;11.20;99.90;;;;;;4173264;28;20553;-52
2022/02/16 11:45:02;;;;;;;;;;;11.40;99.90;;;;;;4165525;28;20047;-52
2022/02/16 11:47:04;;;;;;;;;;;11.10;99.90;;;;;;4167851;28;19979;-52
2022/02/16 11:49:07;;;;;;;;;;;10.90;99.90;;;;;;4169098;28;19939;-52
2022/02/16 11:51:25;;;;;;;;;;;10.80;99.90;;;;;;4167867;28;19933;-52
2022/02/16 11:53:27;;;;;;;;;;;10.70;99.90;;;;;;4162099;28;20447;-51
2022/02/16 11:55:31;;;;;;;;;;;11.20;99.90;;;;;;4176058;28;20397;-51
2022/02/16 11:57:38;;;;;;;;;;;11.30;99.90;;;;;;4175666;28;19932;-52
2022/02/16 11:59:56;;;;;;;;;;;10.90;99.90;;;;;;4171424;28;20012;-52
2022/02/16 12:02:04;;;;;;;;;;;10.80;99.90;;;;;;4177143;28;20401;-52
2022/02/16 12:04:08;;;;;;;;;;;10.80;99.90;;;;;;4171104;28;19929;-52
2022/02/16 12:06:11;;;;;;;;;;;11.30;99.90;;;;;;4176077;28;19928;-52